sensor_id;sensor_type;location;lat;lon;timestamp;temperature;humidity
45012;DHT22;63444;48.148;11.542;2023-03-01T00:01:27;3.20;97.80
45012;DHT22;63444;48.148;11.542;2023-03-01T00:04:00;3.20;97.80
45012;DHT22;63444;48.148;11.542;2023-03-01T00:06:26;3.20;97.90
45012;DHT22;63444;48.148;11.542;2023-03-01T00:08:52;3.10;97.90
45012;DHT22;63444;48.148;11.542;2023-03-01T00:11:29;3.10;98.00
45012;DHT22;63444;48.148;11.542;2023-03-01T00:13:58;3.10;98.00
45012;DHT22;63444;48.148;11.542;2023-03-01T00:16:30;3.20;97.90
45012;DHT22;63444;48.148;11.542;2023-03-01T00:18:57;3.20;97.90
45012;DHT22;63444;48.148;11.542;2023-03-01T00:21:23;3.20;97.90
45012;DHT22;63444;48.148;11.542;2023-03-01T00:23:50;3.20;97.90
45012;DHT22;63444;48.148;11.542;2023-03-01T00:26:16;3.20;97.90
45012;DHT22;63444;48.148;11.542;2023-03-01T00:28:43;3.20;97.90
45012;DHT22;63444;48.148;11.542;2023-03-01T00:31:15;3.20;97.90
45012;DHT22;63444;48.148;11.542;2023-03-01T00:33:41;3.20;98.00
45012;DHT22;63444;48.148;11.542;2023-03-01T00:36:08;3.20;97.90
45012;DHT22;63444;48.148;11.542;2023-03-01T00:38:39;3.20;98.00
45012;DHT22;63444;48.148;11.542;2023-03-01T00:41:07;3.20;98.10
45012;DHT22;63444;48.148;11.542;2023-03-01T00:43:32;3.20;98.00
45012;DHT22;63444;48.148;11.542;2023-03-01T00:46:02;3.10;98.00
45012;DHT22;63444;48.148;11.542;2023-03-01T00:48:29;3.20;97.90
45012;DHT22;63444;48.148;11.542;2023-03-01T00:50:54;3.20;97.90
45012;DHT22;63444;48.148;11.542;2023-03-01T00:53:20;3.20;97.90
45012;DHT22;63444;48.148;11.542;2023-03-01T00:55:45;3.20;97.80
45012;DHT22;63444;48.148;11.542;2023-03-01T00:58:11;3.20;97.80
45012;DHT22;63444;48.148;11.542;2023-03-01T01:00:37;3.20;97.80
45012;DHT22;63444;48.148;11.542;2023-03-01T01:03:03;3.20;97.70
45012;DHT22;63444;48.148;11.542;2023-03-01T01:05:29;3.20;97.70
45012;DHT22;63444;48.148;11.542;2023-03-01T01:07:56;3.20;97.70
45012;DHT22;63444;48.148;11.542;2023-03-01T01:10:21;3.10;97.70
45012;DHT22;63444;48.148;11.542;2023-03-01T01:12:47;3.00;97.90
45012;DHT22;63444;48.148;11.542;2023-03-01T01:15:13;3.00;98.00
45012;DHT22;63444;48.148;11.542;2023-03-01T01:17:42;3.00;98.20
45012;DHT22;63444;48.148;11.542;2023-03-01T01:20:08;3.00;98.00
45012;DHT22;63444;48.148;11.542;2023-03-01T01:22:35;3.00;98.10
45012;DHT22;63444;48.148;11.542;2023-03-01T01:25:00;2.90;98.00
45012;DHT22;63444;48.148;11.542;2023-03-01T01:27:27;2.90;98.10
45012;DHT22;63444;48.148;11.542;2023-03-01T01:29:53;2.80;98.30
45012;DHT22;63444;48.148;11.542;2023-03-01T01:32:18;2.80;98.40
45012;DHT22;63444;48.148;11.542;2023-03-01T01:34:45;2.90;98.30
45012;DHT22;63444;48.148;11.542;2023-03-01T01:37:11;2.90;98.20
45012;DHT22;63444;48.148;11.542;2023-03-01T01:39:37;3.00;98.20
45012;DHT22;63444;48.148;11.542;2023-03-01T01:42:04;3.00;98.20
45012;DHT22;63444;48.148;11.542;2023-03-01T01:44:29;3.00;98.20
45012;DHT22;63444;48.148;11.542;2023-03-01T01:46:59;3.00;98.20
45012;DHT22;63444;48.148;11.542;2023-03-01T01:52:14;3.00;98.10
45012;DHT22;63444;48.148;11.542;2023-03-01T01:57:26;3.10;98.20
45012;DHT22;63444;48.148;11.542;2023-03-01T01:59:54;3.00;98.10
45012;DHT22;63444;48.148;11.542;2023-03-01T02:02:21;2.90;98.20
45012;DHT22;63444;48.148;11.542;2023-03-01T02:04:50;2.90;98.20
45012;DHT22;63444;48.148;11.542;2023-03-01T02:07:22;2.90;98.30
45012;DHT22;63444;48.148;11.542;2023-03-01T02:09:51;3.00;98.40
45012;DHT22;63444;48.148;11.542;2023-03-01T02:12:23;3.00;98.40
45012;DHT22;63444;48.148;11.542;2023-03-01T02:14:49;3.00;98.40
45012;DHT22;63444;48.148;11.542;2023-03-01T02:17:17;3.00;98.30
45012;DHT22;63444;48.148;11.542;2023-03-01T02:22:33;3.00;98.20
45012;DHT22;63444;48.148;11.542;2023-03-01T02:30:46;3.00;98.10
45012;DHT22;63444;48.148;11.542;2023-03-01T02:33:34;2.90;98.20
45012;DHT22;63444;48.148;11.542;2023-03-01T02:36:03;2.90;98.20
45012;DHT22;63444;48.148;11.542;2023-03-01T02:38:30;2.90;98.10
45012;DHT22;63444;48.148;11.542;2023-03-01T02:40:57;2.90;98.10
45012;DHT22;63444;48.148;11.542;2023-03-01T02:43:27;2.80;98.10
45012;DHT22;63444;48.148;11.542;2023-03-01T02:45:58;2.80;98.20
45012;DHT22;63444;48.148;11.542;2023-03-01T02:48:24;2.90;98.20
45012;DHT22;63444;48.148;11.542;2023-03-01T02:51:10;2.80;98.20
45012;DHT22;63444;48.148;11.542;2023-03-01T02:56:35;2.80;98.20
45012;DHT22;63444;48.148;11.542;2023-03-01T02:59:01;2.90;98.20
45012;DHT22;63444;48.148;11.542;2023-03-01T03:01:28;2.80;98.10
45012;DHT22;63444;48.148;11.542;2023-03-01T03:04:07;2.80;98.10
45012;DHT22;63444;48.148;11.542;2023-03-01T03:06:33;2.80;98.10
45012;DHT22;63444;48.148;11.542;2023-03-01T03:08:59;2.80;98.10
45012;DHT22;63444;48.148;11.542;2023-03-01T03:11:25;2.80;98.10
45012;DHT22;63444;48.148;11.542;2023-03-01T03:13:51;2.80;98.10
45012;DHT22;63444;48.148;11.542;2023-03-01T03:16:18;2.80;98.00
45012;DHT22;63444;48.148;11.542;2023-03-01T03:18:44;2.80;98.00
45012;DHT22;63444;48.148;11.542;2023-03-01T03:21:12;2.80;97.90
45012;DHT22;63444;48.148;11.542;2023-03-01T03:23:39;2.90;97.90
45012;DHT22;63444;48.148;11.542;2023-03-01T03:26:05;2.90;97.70
45012;DHT22;63444;48.148;11.542;2023-03-01T03:28:35;2.80;97.40
45012;DHT22;63444;48.148;11.542;2023-03-01T03:31:01;2.80;97.50
45012;DHT22;63444;48.148;11.542;2023-03-01T03:33:32;2.80;97.50
45012;DHT22;63444;48.148;11.542;2023-03-01T03:35:58;2.80;97.60
45012;DHT22;63444;48.148;11.542;2023-03-01T03:38:24;2.80;97.60
45012;DHT22;63444;48.148;11.542;2023-03-01T03:40:59;2.70;97.50
45012;DHT22;63444;48.148;11.542;2023-03-01T03:43:29;2.70;97.50
45012;DHT22;63444;48.148;11.542;2023-03-01T03:45:55;2.60;97.50
45012;DHT22;63444;48.148;11.542;2023-03-01T03:48:23;2.60;97.50
45012;DHT22;63444;48.148;11.542;2023-03-01T03:50:54;2.60;97.60
45012;DHT22;63444;48.148;11.542;2023-03-01T03:53:22;2.60;97.50
45012;DHT22;63444;48.148;11.542;2023-03-01T03:55:48;2.60;97.60
45012;DHT22;63444;48.148;11.542;2023-03-01T03:58:19;2.60;97.50
45012;DHT22;63444;48.148;11.542;2023-03-01T04:00:46;2.60;97.40
45012;DHT22;63444;48.148;11.542;2023-03-01T04:03:14;2.60;97.30
45012;DHT22;63444;48.148;11.542;2023-03-01T04:05:40;2.60;97.30
45012;DHT22;63444;48.148;11.542;2023-03-01T04:08:07;2.60;97.40
45012;DHT22;63444;48.148;11.542;2023-03-01T04:13:01;2.60;97.30
45012;DHT22;63444;48.148;11.542;2023-03-01T04:15:27;2.60;97.40
45012;DHT22;63444;48.148;11.542;2023-03-01T04:17:54;2.60;97.30
45012;DHT22;63444;48.148;11.542;2023-03-01T04:20:22;2.50;97.20
45012;DHT22;63444;48.148;11.542;2023-03-01T04:22:53;2.50;97.30
45012;DHT22;63444;48.148;11.542;2023-03-01T04:25:23;2.50;97.30
45012;DHT22;63444;48.148;11.542;2023-03-01T04:27:49;2.50;97.40
45012;DHT22;63444;48.148;11.542;2023-03-01T04:30:15;2.50;97.40
45012;DHT22;63444;48.148;11.542;2023-03-01T04:32:40;2.50;97.40
45012;DHT22;63444;48.148;11.542;2023-03-01T04:35:08;2.40;97.50
45012;DHT22;63444;48.148;11.542;2023-03-01T04:37:33;2.40;97.50
45012;DHT22;63444;48.148;11.542;2023-03-01T04:40:00;2.40;97.60
45012;DHT22;63444;48.148;11.542;2023-03-01T04:42:26;2.30;97.90
45012;DHT22;63444;48.148;11.542;2023-03-01T04:44:52;2.30;97.90
45012;DHT22;63444;48.148;11.542;2023-03-01T04:47:18;2.20;97.80
45012;DHT22;63444;48.148;11.542;2023-03-01T04:49:44;2.20;97.80
45012;DHT22;63444;48.148;11.542;2023-03-01T04:52:09;2.20;97.90
45012;DHT22;63444;48.148;11.542;2023-03-01T04:54:35;2.20;97.90
45012;DHT22;63444;48.148;11.542;2023-03-01T04:57:02;2.20;97.90
45012;DHT22;63444;48.148;11.542;2023-03-01T04:59:28;2.20;98.00
45012;DHT22;63444;48.148;11.542;2023-03-01T05:01:55;2.20;97.90
45012;DHT22;63444;48.148;11.542;2023-03-01T05:04:22;2.20;97.90
45012;DHT22;63444;48.148;11.542;2023-03-01T05:06:48;2.20;97.90
45012;DHT22;63444;48.148;11.542;2023-03-01T05:09:14;2.20;97.80
45012;DHT22;63444;48.148;11.542;2023-03-01T05:11:41;2.20;97.80
45012;DHT22;63444;48.148;11.542;2023-03-01T05:14:08;2.20;97.70
45012;DHT22;63444;48.148;11.542;2023-03-01T05:16:34;2.20;97.60
45012;DHT22;63444;48.148;11.542;2023-03-01T05:19:02;2.20;97.60
45012;DHT22;63444;48.148;11.542;2023-03-01T05:21:37;2.00;97.60
45012;DHT22;63444;48.148;11.542;2023-03-01T05:24:22;2.00;97.90
45012;DHT22;63444;48.148;11.542;2023-03-01T05:26:48;2.00;97.90
45012;DHT22;63444;48.148;11.542;2023-03-01T05:29:14;1.90;98.00
45012;DHT22;63444;48.148;11.542;2023-03-01T05:31:39;1.80;98.20
45012;DHT22;63444;48.148;11.542;2023-03-01T05:34:05;1.80;98.30
45012;DHT22;63444;48.148;11.542;2023-03-01T05:36:32;1.80;98.60
45012;DHT22;63444;48.148;11.542;2023-03-01T05:38:59;1.90;98.30
45012;DHT22;63444;48.148;11.542;2023-03-01T05:41:25;1.80;98.50
45012;DHT22;63444;48.148;11.542;2023-03-01T05:43:50;1.90;98.50
45012;DHT22;63444;48.148;11.542;2023-03-01T05:46:16;1.80;98.20
45012;DHT22;63444;48.148;11.542;2023-03-01T05:48:44;1.90;98.20
45012;DHT22;63444;48.148;11.542;2023-03-01T05:51:10;1.90;98.10
45012;DHT22;63444;48.148;11.542;2023-03-01T05:53:35;1.80;98.10
45012;DHT22;63444;48.148;11.542;2023-03-01T05:56:03;1.90;98.20
45012;DHT22;63444;48.148;11.542;2023-03-01T05:58:29;1.80;98.10
45012;DHT22;63444;48.148;11.542;2023-03-01T06:00:55;1.80;98.10
45012;DHT22;63444;48.148;11.542;2023-03-01T06:03:20;1.80;98.10
45012;DHT22;63444;48.148;11.542;2023-03-01T06:05:46;1.70;98.30
45012;DHT22;63444;48.148;11.542;2023-03-01T06:08:12;1.70;98.40
45012;DHT22;63444;48.148;11.542;2023-03-01T06:10:38;1.70;98.40
45012;DHT22;63444;48.148;11.542;2023-03-01T06:13:04;1.70;98.30
45012;DHT22;63444;48.148;11.542;2023-03-01T06:15:30;1.70;98.30
45012;DHT22;63444;48.148;11.542;2023-03-01T06:17:56;1.80;98.20
45012;DHT22;63444;48.148;11.542;2023-03-01T06:20:24;1.80;98.10
45012;DHT22;63444;48.148;11.542;2023-03-01T06:22:50;1.80;98.10
45012;DHT22;63444;48.148;11.542;2023-03-01T06:25:20;1.80;98.10
45012;DHT22;63444;48.148;11.542;2023-03-01T06:27:46;1.80;98.10
45012;DHT22;63444;48.148;11.542;2023-03-01T06:30:14;1.80;98.00
45012;DHT22;63444;48.148;11.542;2023-03-01T06:32:41;1.80;98.00
45012;DHT22;63444;48.148;11.542;2023-03-01T06:35:14;1.80;98.40
45012;DHT22;63444;48.148;11.542;2023-03-01T06:37:43;1.90;98.10
45012;DHT22;63444;48.148;11.542;2023-03-01T06:40:10;1.80;98.10
45012;DHT22;63444;48.148;11.542;2023-03-01T06:42:41;1.70;98.20
45012;DHT22;63444;48.148;11.542;2023-03-01T06:45:08;1.70;98.20
45012;DHT22;63444;48.148;11.542;2023-03-01T06:47:34;1.70;98.20
45012;DHT22;63444;48.148;11.542;2023-03-01T06:50:00;1.80;98.20
45012;DHT22;63444;48.148;11.542;2023-03-01T06:52:26;1.70;98.20
45012;DHT22;63444;48.148;11.542;2023-03-01T06:54:52;1.80;98.30
45012;DHT22;63444;48.148;11.542;2023-03-01T06:57:17;1.80;98.20
45012;DHT22;63444;48.148;11.542;2023-03-01T06:59:44;1.80;98.10
45012;DHT22;63444;48.148;11.542;2023-03-01T07:02:12;1.80;98.10
45012;DHT22;63444;48.148;11.542;2023-03-01T07:04:39;1.80;98.10
45012;DHT22;63444;48.148;11.542;2023-03-01T07:07:06;1.70;98.10
45012;DHT22;63444;48.148;11.542;2023-03-01T07:09:32;1.70;98.20
45012;DHT22;63444;48.148;11.542;2023-03-01T07:12:06;1.80;98.20
45012;DHT22;63444;48.148;11.542;2023-03-01T07:14:33;1.80;98.20
45012;DHT22;63444;48.148;11.542;2023-03-01T07:16:58;1.80;98.20
45012;DHT22;63444;48.148;11.542;2023-03-01T07:19:24;1.80;98.30
45012;DHT22;63444;48.148;11.542;2023-03-01T07:21:49;1.80;98.10
45012;DHT22;63444;48.148;11.542;2023-03-01T07:24:15;1.90;98.20
45012;DHT22;63444;48.148;11.542;2023-03-01T07:26:41;1.90;98.10
45012;DHT22;63444;48.148;11.542;2023-03-01T07:29:08;1.80;98.10
45012;DHT22;63444;48.148;11.542;2023-03-01T07:31:34;1.80;98.20
45012;DHT22;63444;48.148;11.542;2023-03-01T07:34:00;1.90;98.20
45012;DHT22;63444;48.148;11.542;2023-03-01T07:36:27;1.90;98.20
45012;DHT22;63444;48.148;11.542;2023-03-01T07:38:53;1.90;98.10
45012;DHT22;63444;48.148;11.542;2023-03-01T07:41:20;1.90;98.40
45012;DHT22;63444;48.148;11.542;2023-03-01T07:43:46;2.00;98.20
45012;DHT22;63444;48.148;11.542;2023-03-01T07:46:12;2.00;98.10
45012;DHT22;63444;48.148;11.542;2023-03-01T07:48:39;2.00;97.90
45012;DHT22;63444;48.148;11.542;2023-03-01T07:51:05;2.00;98.00
45012;DHT22;63444;48.148;11.542;2023-03-01T07:53:34;2.10;98.00
45012;DHT22;63444;48.148;11.542;2023-03-01T07:56:06;2.00;97.90
45012;DHT22;63444;48.148;11.542;2023-03-01T07:58:34;2.10;98.00
45012;DHT22;63444;48.148;11.542;2023-03-01T08:01:09;2.10;98.00
45012;DHT22;63444;48.148;11.542;2023-03-01T08:03:36;2.10;98.00
45012;DHT22;63444;48.148;11.542;2023-03-01T08:06:03;2.10;97.80
45012;DHT22;63444;48.148;11.542;2023-03-01T08:08:30;2.20;97.80
45012;DHT22;63444;48.148;11.542;2023-03-01T08:10:56;2.10;97.60
45012;DHT22;63444;48.148;11.542;2023-03-01T08:13:22;2.00;97.60
45012;DHT22;63444;48.148;11.542;2023-03-01T08:15:49;2.00;97.70
45012;DHT22;63444;48.148;11.542;2023-03-01T08:18:17;2.00;97.50
45012;DHT22;63444;48.148;11.542;2023-03-01T08:20:43;1.90;97.60
45012;DHT22;63444;48.148;11.542;2023-03-01T08:23:09;1.90;97.70
45012;DHT22;63444;48.148;11.542;2023-03-01T08:25:36;1.90;97.60
45012;DHT22;63444;48.148;11.542;2023-03-01T08:28:01;2.00;97.60
45012;DHT22;63444;48.148;11.542;2023-03-01T08:30:27;2.10;97.60
45012;DHT22;63444;48.148;11.542;2023-03-01T08:32:52;2.10;97.60
45012;DHT22;63444;48.148;11.542;2023-03-01T08:35:19;2.20;97.60
45012;DHT22;63444;48.148;11.542;2023-03-01T08:37:45;2.20;97.60
45012;DHT22;63444;48.148;11.542;2023-03-01T08:40:13;2.20;97.30
45012;DHT22;63444;48.148;11.542;2023-03-01T08:42:40;2.20;97.50
45012;DHT22;63444;48.148;11.542;2023-03-01T08:45:07;2.20;97.40
45012;DHT22;63444;48.148;11.542;2023-03-01T08:47:33;2.30;97.40
45012;DHT22;63444;48.148;11.542;2023-03-01T08:49:59;2.40;97.20
45012;DHT22;63444;48.148;11.542;2023-03-01T08:52:25;2.40;97.20
45012;DHT22;63444;48.148;11.542;2023-03-01T08:54:51;2.50;97.20
45012;DHT22;63444;48.148;11.542;2023-03-01T08:57:17;2.50;97.30
45012;DHT22;63444;48.148;11.542;2023-03-01T08:59:43;2.60;97.00
45012;DHT22;63444;48.148;11.542;2023-03-01T09:02:14;2.70;96.90
45012;DHT22;63444;48.148;11.542;2023-03-01T09:04:43;2.80;96.80
45012;DHT22;63444;48.148;11.542;2023-03-01T09:07:11;2.80;96.60
45012;DHT22;63444;48.148;11.542;2023-03-01T09:09:37;2.80;96.50
45012;DHT22;63444;48.148;11.542;2023-03-01T09:12:03;2.90;96.50
45012;DHT22;63444;48.148;11.542;2023-03-01T09:14:29;2.90;96.40
45012;DHT22;63444;48.148;11.542;2023-03-01T09:16:55;2.90;96.40
45012;DHT22;63444;48.148;11.542;2023-03-01T09:19:21;2.90;96.30
45012;DHT22;63444;48.148;11.542;2023-03-01T09:21:46;3.00;96.40
45012;DHT22;63444;48.148;11.542;2023-03-01T09:24:22;2.90;96.40
45012;DHT22;63444;48.148;11.542;2023-03-01T09:26:54;3.00;96.50
45012;DHT22;63444;48.148;11.542;2023-03-01T09:29:23;3.00;96.50
45012;DHT22;63444;48.148;11.542;2023-03-01T09:31:48;3.00;96.40
45012;DHT22;63444;48.148;11.542;2023-03-01T09:34:14;3.00;96.50
45012;DHT22;63444;48.148;11.542;2023-03-01T09:36:48;3.10;96.50
45012;DHT22;63444;48.148;11.542;2023-03-01T09:39:17;3.10;96.40
45012;DHT22;63444;48.148;11.542;2023-03-01T09:41:47;3.20;96.50
45012;DHT22;63444;48.148;11.542;2023-03-01T09:46:57;3.10;96.20
45012;DHT22;63444;48.148;11.542;2023-03-01T09:49:29;3.10;96.40
45012;DHT22;63444;48.148;11.542;2023-03-01T09:54:58;3.20;96.40
45012;DHT22;63444;48.148;11.542;2023-03-01T09:57:40;3.30;96.50
45012;DHT22;63444;48.148;11.542;2023-03-01T10:00:30;3.30;96.60
45012;DHT22;63444;48.148;11.542;2023-03-01T10:03:11;3.40;96.60
45012;DHT22;63444;48.148;11.542;2023-03-01T10:06:18;3.40;96.50
45012;DHT22;63444;48.148;11.542;2023-03-01T10:08:57;3.50;96.40
45012;DHT22;63444;48.148;11.542;2023-03-01T10:11:39;3.70;96.40
45012;DHT22;63444;48.148;11.542;2023-03-01T10:16:48;3.80;96.10
45012;DHT22;63444;48.148;11.542;2023-03-01T10:19:25;3.80;96.10
45012;DHT22;63444;48.148;11.542;2023-03-01T10:21:53;3.80;96.00
45012;DHT22;63444;48.148;11.542;2023-03-01T10:24:19;3.90;96.20
45012;DHT22;63444;48.148;11.542;2023-03-01T10:26:57;4.00;96.10
45012;DHT22;63444;48.148;11.542;2023-03-01T10:29:56;4.30;96.00
45012;DHT22;63444;48.148;11.542;2023-03-01T10:32:24;4.90;95.00
45012;DHT22;63444;48.148;11.542;2023-03-01T10:34:50;5.20;94.50
45012;DHT22;63444;48.148;11.542;2023-03-01T10:37:19;5.60;94.20
45012;DHT22;63444;48.148;11.542;2023-03-01T10:40:05;6.40;93.20
45012;DHT22;63444;48.148;11.542;2023-03-01T10:42:38;7.40;91.70
45012;DHT22;63444;48.148;11.542;2023-03-01T10:48:25;7.60;90.20
45012;DHT22;63444;48.148;11.542;2023-03-01T10:56:20;10.00;82.90
45012;DHT22;63444;48.148;11.542;2023-03-01T10:59:01;9.80;83.10
45012;DHT22;63444;48.148;11.542;2023-03-01T11:01:30;9.90;82.80
45012;DHT22;63444;48.148;11.542;2023-03-01T11:04:10;10.60;82.00
45012;DHT22;63444;48.148;11.542;2023-03-01T11:06:38;12.70;78.90
45012;DHT22;63444;48.148;11.542;2023-03-01T11:09:22;14.70;74.50
45012;DHT22;63444;48.148;11.542;2023-03-01T11:11:59;16.20;68.40
45012;DHT22;63444;48.148;11.542;2023-03-01T11:14:37;17.40;66.10
45012;DHT22;63444;48.148;11.542;2023-03-01T11:17:24;18.60;61.20
45012;DHT22;63444;48.148;11.542;2023-03-01T11:20:01;19.60;57.80
45012;DHT22;63444;48.148;11.542;2023-03-01T11:22:27;20.20;55.80
45012;DHT22;63444;48.148;11.542;2023-03-01T11:24:54;20.30;53.50
45012;DHT22;63444;48.148;11.542;2023-03-01T11:27:24;20.60;53.30
45012;DHT22;63444;48.148;11.542;2023-03-01T11:32:42;22.30;50.10
45012;DHT22;63444;48.148;11.542;2023-03-01T11:35:26;23.20;48.60
45012;DHT22;63444;48.148;11.542;2023-03-01T11:38:29;23.70;46.20
45012;DHT22;63444;48.148;11.542;2023-03-01T11:41:18;24.20;44.80
45012;DHT22;63444;48.148;11.542;2023-03-01T11:44:05;24.80;43.90
45012;DHT22;63444;48.148;11.542;2023-03-01T11:47:00;25.20;42.40
45012;DHT22;63444;48.148;11.542;2023-03-01T11:49:48;25.30;41.60
45012;DHT22;63444;48.148;11.542;2023-03-01T11:54:59;26.10;39.70
45012;DHT22;63444;48.148;11.542;2023-03-01T11:57:53;25.80;39.20
45012;DHT22;63444;48.148;11.542;2023-03-01T12:00:36;25.70;38.50
45012;DHT22;63444;48.148;11.542;2023-03-01T12:06:06;25.60;38.10
45012;DHT22;63444;48.148;11.542;2023-03-01T12:08:50;25.10;38.60
45012;DHT22;63444;48.148;11.542;2023-03-01T12:28:04;16.50;48.10
45012;DHT22;63444;48.148;11.542;2023-03-01T12:30:42;15.80;49.30
45012;DHT22;63444;48.148;11.542;2023-03-01T12:38:55;13.70;53.90
45012;DHT22;63444;48.148;11.542;2023-03-01T12:41:45;13.20;55.00
45012;DHT22;63444;48.148;11.542;2023-03-01T12:47:05;12.30;57.30
45012;DHT22;63444;48.148;11.542;2023-03-01T12:49:51;12.00;58.30
45012;DHT22;63444;48.148;11.542;2023-03-01T12:55:08;11.70;59.50
45012;DHT22;63444;48.148;11.542;2023-03-01T12:57:48;11.50;60.40
45012;DHT22;63444;48.148;11.542;2023-03-01T13:00:22;11.20;60.80
45012;DHT22;63444;48.148;11.542;2023-03-01T13:05:41;10.50;62.70
45012;DHT22;63444;48.148;11.542;2023-03-01T13:10:51;10.20;64.50
45012;DHT22;63444;48.148;11.542;2023-03-01T13:13:21;10.20;65.10
45012;DHT22;63444;48.148;11.542;2023-03-01T13:15:48;10.10;65.40
45012;DHT22;63444;48.148;11.542;2023-03-01T13:20:49;10.10;65.60
45012;DHT22;63444;48.148;11.542;2023-03-01T13:33:56;10.00;67.50
45012;DHT22;63444;48.148;11.542;2023-03-01T13:39:04;9.80;69.40
45012;DHT22;63444;48.148;11.542;2023-03-01T13:44:30;9.80;69.70
45012;DHT22;63444;48.148;11.542;2023-03-01T13:47:03;9.50;70.10
45012;DHT22;63444;48.148;11.542;2023-03-01T13:49:53;9.30;70.90
45012;DHT22;63444;48.148;11.542;2023-03-01T13:52:45;9.30;71.60
45012;DHT22;63444;48.148;11.542;2023-03-01T13:55:22;9.20;71.80
45012;DHT22;63444;48.148;11.542;2023-03-01T13:57:53;9.10;72.20
45012;DHT22;63444;48.148;11.542;2023-03-01T14:00:40;9.00;72.40
45012;DHT22;63444;48.148;11.542;2023-03-01T14:03:12;9.00;73.00
45012;DHT22;63444;48.148;11.542;2023-03-01T14:05:41;9.00;73.60
45012;DHT22;63444;48.148;11.542;2023-03-01T14:08:23;8.90;73.60
45012;DHT22;63444;48.148;11.542;2023-03-01T14:11:34;9.00;73.60
45012;DHT22;63444;48.148;11.542;2023-03-01T14:16:54;8.90;73.80
45012;DHT22;63444;48.148;11.542;2023-03-01T14:19:27;8.90;74.10
45012;DHT22;63444;48.148;11.542;2023-03-01T14:22:01;8.90;74.20
45012;DHT22;63444;48.148;11.542;2023-03-01T14:24:31;8.90;74.50
45012;DHT22;63444;48.148;11.542;2023-03-01T14:27:00;8.90;74.90
45012;DHT22;63444;48.148;11.542;2023-03-01T14:29:32;8.90;74.80
45012;DHT22;63444;48.148;11.542;2023-03-01T14:32:09;8.90;75.00
45012;DHT22;63444;48.148;11.542;2023-03-01T14:34:35;8.80;75.60
45012;DHT22;63444;48.148;11.542;2023-03-01T14:37:29;8.80;75.90
45012;DHT22;63444;48.148;11.542;2023-03-01T14:39:57;8.80;76.00
45012;DHT22;63444;48.148;11.542;2023-03-01T14:42:27;8.80;76.30
45012;DHT22;63444;48.148;11.542;2023-03-01T14:44:55;8.80;76.50
45012;DHT22;63444;48.148;11.542;2023-03-01T14:47:32;8.80;76.70
45012;DHT22;63444;48.148;11.542;2023-03-01T14:52:46;8.80;77.30
45012;DHT22;63444;48.148;11.542;2023-03-01T14:55:18;8.80;77.60
45012;DHT22;63444;48.148;11.542;2023-03-01T14:57:46;8.80;77.70
45012;DHT22;63444;48.148;11.542;2023-03-01T15:00:33;8.80;78.20
45012;DHT22;63444;48.148;11.542;2023-03-01T15:05:51;8.70;78.90
45012;DHT22;63444;48.148;11.542;2023-03-01T15:08:20;8.70;79.20
45012;DHT22;63444;48.148;11.542;2023-03-01T15:13:42;8.60;79.70
45012;DHT22;63444;48.148;11.542;2023-03-01T15:18:59;8.60;80.30
45012;DHT22;63444;48.148;11.542;2023-03-01T15:21:30;8.50;80.40
45012;DHT22;63444;48.148;11.542;2023-03-01T15:26:51;8.60;80.80
45012;DHT22;63444;48.148;11.542;2023-03-01T15:29:23;8.60;81.00
45012;DHT22;63444;48.148;11.542;2023-03-01T15:32:06;8.40;81.10
45012;DHT22;63444;48.148;11.542;2023-03-01T15:34:38;8.40;81.20
45012;DHT22;63444;48.148;11.542;2023-03-01T15:37:06;8.40;81.50
45012;DHT22;63444;48.148;11.542;2023-03-01T15:39:54;8.40;81.80
45012;DHT22;63444;48.148;11.542;2023-03-01T15:45:29;8.30;82.70
45012;DHT22;63444;48.148;11.542;2023-03-01T15:48:04;8.30;82.80
45012;DHT22;63444;48.148;11.542;2023-03-01T15:50:34;8.30;82.90
45012;DHT22;63444;48.148;11.542;2023-03-01T15:53:03;8.30;83.00
45012;DHT22;63444;48.148;11.542;2023-03-01T15:55:32;8.40;83.30
45012;DHT22;63444;48.148;11.542;2023-03-01T16:00:27;8.40;83.70
45012;DHT22;63444;48.148;11.542;2023-03-01T16:02:53;8.30;83.80
45012;DHT22;63444;48.148;11.542;2023-03-01T16:05:30;8.30;84.00
45012;DHT22;63444;48.148;11.542;2023-03-01T16:07:57;8.30;84.10
45012;DHT22;63444;48.148;11.542;2023-03-01T16:10:23;8.30;84.40
45012;DHT22;63444;48.148;11.542;2023-03-01T16:12:49;8.30;84.70
45012;DHT22;63444;48.148;11.542;2023-03-01T16:15:32;8.30;85.10
45012;DHT22;63444;48.148;11.542;2023-03-01T16:18:00;8.20;85.50
45012;DHT22;63444;48.148;11.542;2023-03-01T16:20:26;8.20;85.80
45012;DHT22;63444;48.148;11.542;2023-03-01T16:22:52;8.20;86.80
45012;DHT22;63444;48.148;11.542;2023-03-01T16:25:20;8.10;86.40
45012;DHT22;63444;48.148;11.542;2023-03-01T16:27:48;8.20;87.40
45012;DHT22;63444;48.148;11.542;2023-03-01T16:30:15;8.10;87.00
45012;DHT22;63444;48.148;11.542;2023-03-01T16:32:44;8.10;87.30
45012;DHT22;63444;48.148;11.542;2023-03-01T16:35:11;8.00;87.50
45012;DHT22;63444;48.148;11.542;2023-03-01T16:37:37;8.00;87.70
45012;DHT22;63444;48.148;11.542;2023-03-01T16:40:04;8.00;87.80
45012;DHT22;63444;48.148;11.542;2023-03-01T16:42:34;8.00;87.90
45012;DHT22;63444;48.148;11.542;2023-03-01T16:45:00;8.00;88.00
45012;DHT22;63444;48.148;11.542;2023-03-01T16:47:27;8.00;88.20
45012;DHT22;63444;48.148;11.542;2023-03-01T16:49:53;8.00;88.20
45012;DHT22;63444;48.148;11.542;2023-03-01T16:52:19;8.10;88.50
45012;DHT22;63444;48.148;11.542;2023-03-01T16:54:45;8.10;88.70
45012;DHT22;63444;48.148;11.542;2023-03-01T16:57:10;8.10;88.90
45012;DHT22;63444;48.148;11.542;2023-03-01T16:59:36;8.10;89.10
45012;DHT22;63444;48.148;11.542;2023-03-01T17:02:04;8.10;89.10
45012;DHT22;63444;48.148;11.542;2023-03-01T17:04:32;8.00;89.30
45012;DHT22;63444;48.148;11.542;2023-03-01T17:06:58;8.00;89.60
45012;DHT22;63444;48.148;11.542;2023-03-01T17:09:23;8.00;90.00
45012;DHT22;63444;48.148;11.542;2023-03-01T17:11:49;7.90;90.00
45012;DHT22;63444;48.148;11.542;2023-03-01T17:14:15;7.90;90.10
45012;DHT22;63444;48.148;11.542;2023-03-01T17:16:43;7.90;90.30
45012;DHT22;63444;48.148;11.542;2023-03-01T17:19:10;7.80;90.40
45012;DHT22;63444;48.148;11.542;2023-03-01T17:21:36;7.90;90.50
45012;DHT22;63444;48.148;11.542;2023-03-01T17:24:02;7.90;90.60
45012;DHT22;63444;48.148;11.542;2023-03-01T17:26:28;7.90;90.70
45012;DHT22;63444;48.148;11.542;2023-03-01T17:28:57;7.90;90.70
45012;DHT22;63444;48.148;11.542;2023-03-01T17:31:23;7.80;90.80
45012;DHT22;63444;48.148;11.542;2023-03-01T17:33:49;7.80;91.00
45012;DHT22;63444;48.148;11.542;2023-03-01T17:36:15;7.80;91.10
45012;DHT22;63444;48.148;11.542;2023-03-01T17:38:41;7.80;91.20
45012;DHT22;63444;48.148;11.542;2023-03-01T17:41:06;7.80;91.20
45012;DHT22;63444;48.148;11.542;2023-03-01T17:43:33;7.80;91.20
45012;DHT22;63444;48.148;11.542;2023-03-01T17:45:59;7.70;91.20